Aérodrome :
LOGIN :

S'inscrire | Disclaimer

   EN    FR    IT 

 










Légende :    VFR   VFR Marginal   IFR   IFR Intensif   IFR Très Intensif
Visi : 
Plafond : 
>= 8 km
>= 3000ft
5 à 8 km
1000 à 3000 ft
1500m à 5 km
500 à 1000 ft
800 à 1500m
200 à 500 ft
< 800m
< 200 ft
Symboles :   Orages  Brouillard  Fortes neiges  Fortes précipitations  Vent > 20 kt
SIGMETs :   Divers  Orages  Givrage  Turbulence  Onde Orograph.  Cendres Volcan.







- Altitude de l'aérodrome : 220 ft
- Code IATA : CWL
- Voir les cartes d'approche


EGFF - Cardiff Rhoose

DERNIER METAR :
  • 150120Z AUTO 12015KT 9999 OVC031 04/01 Q1017

METARs EXPIRÉS :
  • 150050Z AUTO 12015KT 9999 OVC033 04/01 Q1017
  • 150020Z AUTO 11016KT 9999 OVC034 04/01 Q1017
  • 142350Z AUTO 12015KT 9999 BKN037 BKN048 04/01 Q1018
  • 142320Z AUTO 12015KT 9999 FEW027 BKN035 04/01 Q1018
  • 142250Z AUTO 12016KT 9999 BKN027 BKN036 04/01 Q1018

TAF TAF EGFF
Valide du 15 à 00h jusqu'au 16 à 00h UTC


142303Z 1500/1524 12016KT 9999 BKN030
BECMG 1503/1506 11022G32KT 6000 -RA SCT006 BKN010
TEMPO 1503/1515 3000 RA BKN006
PROB40
TEMPO 1506/1515 1200 +RA BKN004
BECMG 1515/1518 24018G28KT 9999 NSW SCT025
PROB30
TEMPO 1515/1524 3000 +SHRA
ATIS : +44 1446 729 319
Pas de NOTAMs connus pour ce terrain.



MET'MAP, la Météo Aéronautique d'un coup d'oeil ! - Copyright ORBIFLY Décembre 2007 - Disclaimer

ORBIFLY MET'MAP TEAM :

Programmation & Développement : Alexandra Zaïnal
Conception & Développement : Baudouin d'Aumeries
Co-Programmation & Développement : Marc-Olivier Méhu
Soutien technique & logistique : Manuel Goepfert

Contact : metmap@orbifly.com




SOURCES & CREDITS :

   NOAA